createdAt,value
2022-10-13T00:01:46.935Z,14.10
2022-10-13T00:04:13.849Z,14.10
2022-10-13T00:06:40.753Z,14.10
2022-10-13T00:09:07.581Z,14.10
2022-10-13T00:11:34.463Z,14.10
2022-10-13T00:14:02.526Z,14.10
2022-10-13T00:16:29.573Z,14.10
2022-10-13T00:18:56.608Z,14.10
2022-10-13T00:21:25.974Z,14.00
2022-10-13T00:23:53.350Z,14.00
2022-10-13T00:26:21.331Z,14.00
2022-10-13T00:28:52.220Z,14.00
2022-10-13T00:31:20.942Z,13.90
2022-10-13T00:33:49.388Z,13.80
2022-10-13T00:36:16.475Z,13.80
2022-10-13T00:38:43.808Z,13.90
2022-10-13T00:41:10.772Z,13.90
2022-10-13T00:43:57.303Z,13.90
2022-10-13T00:46:25.746Z,13.90
2022-10-13T00:48:52.527Z,13.90
2022-10-13T00:51:21.488Z,13.90
2022-10-13T00:53:48.362Z,13.90
2022-10-13T00:56:16.217Z,13.80
2022-10-13T00:58:43.064Z,13.80
2022-10-13T01:01:09.937Z,13.80
2022-10-13T01:03:36.853Z,13.80
2022-10-13T01:06:04.289Z,13.80
2022-10-13T01:08:31.676Z,13.80
2022-10-13T01:11:11.906Z,13.80
2022-10-13T01:13:53.597Z,13.80
2022-10-13T01:16:29.738Z,13.80
2022-10-13T01:19:34.241Z,13.80
2022-10-13T01:22:17.870Z,13.80
2022-10-13T01:24:57.913Z,13.80
2022-10-13T01:27:44.399Z,13.80
2022-10-13T01:30:16.333Z,13.80
2022-10-13T01:32:49.196Z,13.80
2022-10-13T01:35:29.228Z,13.70
2022-10-13T01:37:59.659Z,13.70
2022-10-13T01:40:32.493Z,13.70
2022-10-13T01:43:03.306Z,13.70
2022-10-13T01:45:40.710Z,13.70
2022-10-13T01:48:07.505Z,13.70
2022-10-13T01:50:34.514Z,13.70
2022-10-13T01:53:02.520Z,13.70
2022-10-13T01:55:29.904Z,13.70
2022-10-13T01:57:56.701Z,13.70
2022-10-13T02:00:23.788Z,13.70
2022-10-13T02:03:08.289Z,13.70
2022-10-13T02:05:49.469Z,13.70
2022-10-13T02:08:31.247Z,13.60
2022-10-13T02:11:09.962Z,13.60
2022-10-13T02:13:36.892Z,13.60
2022-10-13T02:16:03.786Z,13.60
2022-10-13T02:18:34.454Z,13.60
2022-10-13T02:21:01.505Z,13.60
2022-10-13T02:23:28.343Z,13.60
2022-10-13T02:25:56.845Z,13.60
2022-10-13T02:28:23.858Z,13.50
2022-10-13T02:30:50.907Z,13.50
2022-10-13T02:33:17.773Z,13.50
2022-10-13T02:35:44.791Z,13.50
2022-10-13T02:38:12.055Z,13.60
2022-10-13T02:40:38.907Z,13.50
2022-10-13T02:43:05.878Z,13.50
2022-10-13T02:45:32.716Z,13.50
2022-10-13T02:47:59.608Z,13.50
2022-10-13T02:50:26.561Z,13.50
2022-10-13T02:52:53.436Z,13.50
2022-10-13T02:55:20.373Z,13.50
2022-10-13T02:57:47.285Z,13.50
2022-10-13T03:00:14.828Z,13.50
2022-10-13T03:02:42.249Z,13.50
2022-10-13T03:05:09.363Z,13.50
2022-10-13T03:07:36.309Z,13.50
2022-10-13T03:10:03.706Z,13.50
2022-10-13T03:12:30.621Z,13.50
2022-10-13T03:14:57.566Z,13.50
2022-10-13T03:17:24.401Z,13.50
2022-10-13T03:19:51.216Z,13.50
2022-10-13T03:22:18.570Z,13.50
2022-10-13T03:24:45.616Z,13.50
2022-10-13T03:27:12.568Z,13.50
2022-10-13T03:29:39.441Z,13.50
2022-10-13T03:32:06.311Z,13.50
2022-10-13T03:34:33.514Z,13.50
2022-10-13T03:37:00.444Z,13.40
2022-10-13T03:39:27.350Z,13.50
2022-10-13T03:41:54.196Z,13.50
2022-10-13T03:44:21.045Z,13.50
2022-10-13T03:46:47.996Z,13.50
2022-10-13T03:49:14.921Z,13.50
2022-10-13T03:51:41.753Z,13.50
2022-10-13T03:54:11.316Z,13.40
2022-10-13T03:56:38.051Z,13.50
2022-10-13T03:59:05.155Z,13.50
2022-10-13T04:01:32.259Z,13.50
2022-10-13T04:03:59.663Z,13.40
2022-10-13T04:06:26.696Z,13.40
2022-10-13T04:08:53.653Z,13.40
2022-10-13T04:11:20.672Z,13.40
2022-10-13T04:13:47.663Z,13.40
2022-10-13T04:16:24.172Z,13.40
2022-10-13T04:19:01.624Z,13.40
2022-10-13T04:21:29.098Z,13.40
2022-10-13T04:23:59.574Z,13.40
2022-10-13T04:26:27.669Z,13.40
2022-10-13T04:28:54.934Z,13.40
2022-10-13T04:31:22.986Z,13.40
2022-10-13T04:33:50.066Z,13.40
2022-10-13T04:36:17.148Z,13.40
2022-10-13T04:38:44.155Z,13.40
2022-10-13T04:41:11.404Z,13.40
2022-10-13T04:43:38.281Z,13.30
2022-10-13T04:46:10.517Z,13.30
2022-10-13T04:48:37.551Z,13.30
2022-10-13T04:51:14.844Z,13.30
2022-10-13T04:53:41.794Z,13.30
2022-10-13T04:56:10.575Z,13.30
2022-10-13T04:58:37.746Z,13.30
2022-10-13T05:01:05.547Z,13.30
2022-10-13T05:03:32.863Z,13.30
2022-10-13T05:05:59.722Z,13.30
2022-10-13T05:08:26.615Z,13.30
2022-10-13T05:11:01.118Z,13.20
2022-10-13T05:13:28.517Z,13.30
2022-10-13T05:15:55.497Z,13.20
2022-10-13T05:18:22.723Z,13.20
2022-10-13T05:20:49.593Z,13.30
2022-10-13T05:23:16.459Z,13.20
2022-10-13T05:25:43.307Z,13.30
2022-10-13T05:28:10.122Z,13.20
2022-10-13T05:30:37.042Z,13.30
2022-10-13T05:33:03.902Z,13.30
2022-10-13T05:35:30.796Z,13.30
2022-10-13T05:37:57.701Z,13.30
2022-10-13T05:40:24.529Z,13.30
2022-10-13T05:42:51.517Z,13.30
2022-10-13T05:45:18.464Z,13.30
2022-10-13T05:47:45.312Z,13.30
2022-10-13T05:50:12.212Z,13.30
2022-10-13T05:52:39.066Z,13.30
2022-10-13T05:55:06.291Z,13.30
2022-10-13T05:57:34.989Z,13.30
2022-10-13T06:00:09.278Z,13.30
2022-10-13T06:02:45.722Z,13.30
2022-10-13T06:05:15.035Z,13.30
2022-10-13T06:07:42.798Z,13.40
2022-10-13T06:10:10.364Z,13.40
2022-10-13T06:12:37.512Z,13.40
2022-10-13T06:15:05.148Z,13.40
2022-10-13T06:17:32.020Z,13.40
2022-10-13T06:20:00.183Z,13.40
2022-10-13T06:22:27.071Z,13.40
2022-10-13T06:24:53.901Z,13.50
2022-10-13T06:27:20.678Z,13.40
2022-10-13T06:29:47.495Z,13.40
2022-10-13T06:32:14.312Z,13.50
2022-10-13T06:34:41.201Z,13.50
2022-10-13T06:37:08.157Z,13.50
2022-10-13T06:39:35.367Z,13.50
2022-10-13T06:42:02.228Z,13.50
2022-10-13T06:44:29.980Z,13.50
2022-10-13T06:46:56.832Z,13.50
2022-10-13T06:49:24.185Z,13.50
2022-10-13T06:51:51.169Z,13.60
2022-10-13T06:54:18.093Z,13.60
2022-10-13T06:56:44.889Z,13.50
2022-10-13T06:59:11.931Z,13.60
2022-10-13T07:01:41.566Z,13.60
2022-10-13T07:04:09.369Z,13.70
2022-10-13T07:06:36.292Z,13.70
2022-10-13T07:09:07.079Z,13.70
2022-10-13T07:11:34.847Z,13.70
2022-10-13T07:16:33.385Z,13.70
2022-10-13T07:19:00.210Z,13.70
2022-10-13T07:21:27.126Z,13.80
2022-10-13T07:23:54.011Z,13.80
2022-10-13T07:26:20.884Z,13.80
2022-10-13T07:28:47.819Z,13.80
2022-10-13T07:31:19.031Z,13.80
2022-10-13T07:33:47.193Z,13.80
2022-10-13T07:36:14.324Z,13.80
2022-10-13T07:38:41.210Z,13.80
2022-10-13T07:41:10.417Z,13.80
2022-10-13T07:43:37.272Z,13.80
2022-10-13T07:46:07.176Z,13.80
2022-10-13T07:48:34.216Z,13.70
2022-10-13T07:51:05.081Z,13.70
2022-10-13T07:53:32.011Z,13.70
2022-10-13T07:56:06.046Z,13.70
2022-10-13T07:58:33.480Z,13.70
2022-10-13T08:01:01.436Z,13.70
2022-10-13T08:03:28.605Z,13.80
2022-10-13T08:05:55.706Z,13.80
2022-10-13T08:08:22.591Z,13.90
2022-10-13T08:10:49.433Z,13.90
2022-10-13T08:13:16.388Z,14.00
2022-10-13T08:15:43.645Z,14.00
2022-10-13T08:18:11.198Z,14.10
2022-10-13T08:20:43.771Z,14.20
2022-10-13T08:23:11.746Z,14.30
2022-10-13T08:25:42.282Z,14.40
2022-10-13T08:28:19.810Z,14.50
2022-10-13T08:30:46.909Z,14.70
2022-10-13T08:33:14.015Z,14.90
2022-10-13T08:35:42.565Z,15.00
2022-10-13T08:38:09.640Z,15.10
2022-10-13T08:40:37.626Z,15.30
2022-10-13T08:43:17.296Z,15.40
2022-10-13T08:45:44.218Z,15.40
2022-10-13T08:48:12.676Z,15.40
2022-10-13T08:50:41.070Z,15.40
2022-10-13T08:53:12.739Z,15.40
2022-10-13T08:55:54.663Z,15.30
2022-10-13T08:58:23.451Z,15.20
2022-10-13T09:01:20.493Z,15.20
2022-10-13T09:03:54.187Z,15.20
2022-10-13T09:06:28.951Z,15.20
2022-10-13T09:08:59.494Z,15.20
2022-10-13T09:11:32.384Z,15.10
2022-10-13T09:14:00.680Z,15.10
2022-10-13T09:16:36.497Z,15.00
2022-10-13T09:19:15.905Z,15.00
2022-10-13T09:21:42.963Z,15.00
2022-10-13T09:24:16.937Z,15.00
2022-10-13T09:26:44.389Z,15.10
2022-10-13T09:29:24.648Z,15.20
2022-10-13T09:31:51.641Z,15.20
2022-10-13T09:34:18.879Z,15.20
2022-10-13T09:37:03.408Z,15.20
2022-10-13T09:39:30.996Z,15.20
2022-10-13T09:42:18.947Z,15.10
2022-10-13T09:44:46.216Z,15.10
2022-10-13T09:47:18.986Z,15.10
2022-10-13T09:49:45.866Z,15.20
2022-10-13T09:52:12.698Z,15.30
2022-10-13T09:54:48.422Z,15.40
2022-10-13T09:57:39.222Z,15.60
2022-10-13T10:00:23.848Z,15.70
2022-10-13T10:03:22.536Z,15.90
2022-10-13T10:06:02.662Z,16.00
2022-10-13T10:09:03.737Z,16.10
2022-10-13T10:11:41.946Z,16.10
2022-10-13T10:14:22.289Z,16.20
2022-10-13T10:17:10.100Z,16.10
2022-10-13T10:19:36.956Z,16.10
2022-10-13T10:22:13.412Z,16.10
2022-10-13T10:24:49.593Z,16.10
2022-10-13T10:27:42.856Z,16.20
2022-10-13T10:30:16.733Z,16.30
2022-10-13T10:33:02.319Z,16.40
2022-10-13T10:35:32.278Z,16.50
2022-10-13T10:38:14.287Z,16.60
2022-10-13T10:40:49.631Z,16.70
2022-10-13T10:43:58.340Z,16.90
2022-10-13T10:46:28.379Z,16.90
2022-10-13T10:48:57.611Z,16.90
2022-10-13T10:51:27.077Z,16.90
2022-10-13T10:54:08.323Z,16.80
2022-10-13T10:56:48.693Z,16.80
2022-10-13T10:59:27.985Z,16.80
2022-10-13T11:02:06.838Z,16.80
2022-10-13T11:04:40.598Z,16.70
2022-10-13T11:07:11.785Z,16.60
2022-10-13T11:09:41.850Z,16.50
2022-10-13T11:12:21.182Z,16.50
2022-10-13T11:14:54.767Z,16.40
2022-10-13T11:17:30.994Z,16.30
2022-10-13T11:19:58.038Z,16.20
2022-10-13T11:22:25.065Z,16.10
2022-10-13T11:24:54.279Z,16.10
2022-10-13T11:27:33.189Z,16.00
2022-10-13T11:30:01.415Z,16.00
2022-10-13T11:32:30.691Z,16.00
2022-10-13T11:35:07.048Z,16.00
2022-10-13T11:37:51.690Z,16.00
2022-10-13T11:40:52.820Z,16.10
2022-10-13T11:43:26.036Z,16.00
2022-10-13T11:46:14.676Z,16.00
2022-10-13T11:48:44.273Z,16.10
2022-10-13T11:51:48.545Z,16.10
2022-10-13T11:54:28.459Z,16.10
2022-10-13T11:56:57.008Z,16.00
2022-10-13T11:59:32.125Z,16.00
2022-10-13T12:01:59.985Z,16.00
2022-10-13T12:04:27.901Z,16.10
2022-10-13T12:07:02.604Z,16.10
2022-10-13T12:09:31.513Z,16.10
2022-10-13T12:12:10.339Z,16.20
2022-10-13T12:14:43.311Z,16.20
2022-10-13T12:17:31.080Z,16.30
2022-10-13T12:20:04.676Z,16.40
2022-10-13T12:22:31.532Z,16.40
2022-10-13T12:25:03.261Z,16.50
2022-10-13T12:27:32.834Z,16.50
2022-10-13T12:30:02.891Z,16.50
2022-10-13T12:32:31.513Z,16.60
2022-10-13T12:35:19.819Z,16.50
2022-10-13T12:37:46.723Z,16.60
2022-10-13T12:40:14.870Z,16.60
2022-10-13T12:42:41.812Z,16.60
2022-10-13T12:45:20.757Z,16.70
2022-10-13T12:47:49.938Z,16.80
2022-10-13T12:50:25.883Z,16.90
2022-10-13T12:53:12.160Z,17.00
2022-10-13T12:55:59.190Z,16.90
2022-10-13T12:58:31.364Z,17.00
2022-10-13T13:01:05.110Z,17.00
2022-10-13T13:03:32.063Z,16.90
2022-10-13T13:06:24.326Z,16.90
2022-10-13T13:09:23.396Z,16.90
2022-10-13T13:12:04.086Z,16.90
2022-10-13T13:14:43.344Z,16.90
2022-10-13T13:17:17.395Z,16.90
2022-10-13T13:19:48.439Z,16.90
2022-10-13T13:22:15.929Z,17.00
2022-10-13T13:24:42.951Z,17.20
2022-10-13T13:27:25.561Z,17.30
2022-10-13T13:29:53.735Z,17.30
2022-10-13T13:32:21.506Z,17.20
2022-10-13T13:34:48.934Z,17.30
2022-10-13T13:37:54.370Z,17.30
2022-10-13T13:40:23.860Z,17.40
2022-10-13T13:42:50.832Z,17.40
2022-10-13T13:45:19.356Z,17.50
2022-10-13T13:47:46.246Z,17.50
2022-10-13T13:50:26.739Z,17.50
2022-10-13T13:52:53.600Z,17.50
2022-10-13T13:55:20.501Z,17.50
2022-10-13T13:57:47.359Z,17.50
2022-10-13T14:00:14.717Z,17.50
2022-10-13T14:02:43.000Z,17.60
2022-10-13T14:05:11.338Z,17.60
2022-10-13T14:07:38.563Z,17.60
2022-10-13T14:10:06.129Z,17.70
2022-10-13T14:12:33.184Z,17.60
2022-10-13T14:15:00.155Z,17.60
2022-10-13T14:17:27.345Z,17.60
2022-10-13T14:19:54.418Z,17.60
2022-10-13T14:22:22.147Z,17.60
2022-10-13T14:24:49.353Z,17.60
2022-10-13T14:27:16.216Z,17.60
2022-10-13T14:29:43.180Z,17.50
2022-10-13T14:32:10.094Z,17.50
2022-10-13T14:34:36.999Z,17.40
2022-10-13T14:37:03.929Z,17.30
2022-10-13T14:39:30.885Z,17.20
2022-10-13T14:41:57.770Z,17.10
2022-10-13T14:44:24.591Z,17.00
2022-10-13T14:46:51.403Z,17.00
2022-10-13T14:49:18.282Z,16.80
2022-10-13T14:51:45.455Z,16.90
2022-10-13T14:54:12.399Z,16.80
2022-10-13T14:56:39.383Z,16.70
2022-10-13T14:59:07.226Z,16.70
2022-10-13T15:01:34.734Z,16.70
2022-10-13T15:04:02.161Z,16.70
2022-10-13T15:06:29.407Z,16.70
2022-10-13T15:08:56.379Z,16.70
2022-10-13T15:11:23.485Z,16.60
2022-10-13T15:13:50.308Z,16.60
2022-10-13T15:16:19.749Z,16.60
2022-10-13T15:18:46.786Z,16.60
2022-10-13T15:21:13.998Z,16.60
2022-10-13T15:23:41.028Z,16.60
2022-10-13T15:26:08.286Z,16.60
2022-10-13T15:28:39.878Z,16.70
2022-10-13T15:31:07.085Z,16.60
2022-10-13T15:33:34.154Z,16.60
2022-10-13T15:36:01.248Z,16.60
2022-10-13T15:38:30.650Z,16.60
2022-10-13T15:41:00.659Z,16.50
2022-10-13T15:43:28.139Z,16.50
2022-10-13T15:46:05.740Z,16.40
2022-10-13T15:48:32.667Z,16.40
2022-10-13T15:51:00.032Z,16.30
2022-10-13T15:53:26.940Z,16.30
2022-10-13T15:55:53.795Z,16.20
2022-10-13T15:58:20.718Z,16.20
2022-10-13T16:00:47.684Z,16.20
2022-10-13T16:03:15.305Z,16.20
2022-10-13T16:05:43.159Z,16.10
2022-10-13T16:08:10.150Z,16.10
2022-10-13T16:10:41.449Z,16.10
2022-10-13T16:13:09.053Z,16.00
2022-10-13T16:15:35.886Z,16.00
2022-10-13T16:18:02.819Z,15.90
2022-10-13T16:20:34.534Z,15.90
2022-10-13T16:23:02.048Z,15.90
2022-10-13T16:25:29.560Z,15.80
2022-10-13T16:27:56.544Z,15.80
2022-10-13T16:30:23.411Z,15.70
2022-10-13T16:32:50.364Z,15.60
2022-10-13T16:35:17.365Z,15.60
2022-10-13T16:37:44.226Z,15.60
2022-10-13T16:40:11.471Z,15.50
2022-10-13T16:42:38.378Z,15.40
2022-10-13T16:45:05.928Z,15.40
2022-10-13T16:47:32.930Z,15.40
2022-10-13T16:49:59.756Z,15.30
2022-10-13T16:52:26.637Z,15.30
2022-10-13T16:54:53.451Z,15.30
2022-10-13T16:57:20.616Z,15.20
2022-10-13T16:59:47.637Z,15.10
2022-10-13T17:02:15.137Z,15.10
2022-10-13T17:04:42.617Z,15.10
2022-10-13T17:07:09.678Z,15.10
2022-10-13T17:09:36.554Z,15.10
2022-10-13T17:12:04.811Z,15.10
2022-10-13T17:14:31.824Z,15.00
2022-10-13T17:16:58.653Z,15.00
2022-10-13T17:19:25.623Z,14.90
2022-10-13T17:21:52.468Z,14.90
2022-10-13T17:24:19.407Z,14.80
2022-10-13T17:26:46.228Z,14.80
2022-10-13T17:29:13.107Z,14.70
2022-10-13T17:31:40.061Z,14.70
2022-10-13T17:34:09.295Z,14.60
2022-10-13T17:36:36.625Z,14.50
2022-10-13T17:39:07.852Z,14.50
2022-10-13T17:41:34.841Z,14.50
2022-10-13T17:44:01.729Z,14.40
2022-10-13T17:46:37.477Z,14.40
2022-10-13T17:49:06.495Z,14.30
2022-10-13T17:51:33.343Z,14.30
2022-10-13T17:54:00.729Z,14.20
2022-10-13T17:56:28.139Z,14.20
2022-10-13T17:58:55.024Z,14.10
2022-10-13T18:01:28.679Z,14.00
2022-10-13T18:03:56.877Z,13.90
2022-10-13T18:06:24.149Z,13.90
2022-10-13T18:08:51.179Z,13.80
2022-10-13T18:11:19.377Z,13.70
2022-10-13T18:13:47.050Z,13.70
2022-10-13T18:16:16.167Z,13.70
2022-10-13T18:18:46.418Z,13.60
2022-10-13T18:21:14.743Z,13.50
2022-10-13T18:23:41.783Z,13.50
2022-10-13T18:26:13.595Z,13.50
2022-10-13T18:28:40.877Z,13.40
2022-10-13T18:31:08.948Z,13.40
2022-10-13T18:33:35.883Z,13.40
2022-10-13T18:36:20.453Z,13.40
2022-10-13T18:38:47.649Z,13.30
2022-10-13T18:41:15.266Z,13.30
2022-10-13T18:43:42.162Z,13.20
2022-10-13T18:46:08.987Z,13.20
2022-10-13T18:48:35.867Z,13.10
2022-10-13T18:51:04.476Z,13.10
2022-10-13T18:53:31.353Z,13.00
2022-10-13T18:56:06.152Z,13.00
2022-10-13T18:58:33.253Z,12.90
2022-10-13T19:01:05.183Z,13.00
2022-10-13T19:03:32.975Z,12.90
2022-10-13T19:05:59.918Z,12.90
2022-10-13T19:08:29.173Z,12.90
2022-10-13T19:10:56.069Z,12.90
2022-10-13T19:13:23.032Z,12.90
2022-10-13T19:15:49.867Z,12.90
2022-10-13T19:18:16.802Z,12.90
2022-10-13T19:20:44.018Z,12.80
2022-10-13T19:23:15.136Z,12.90
2022-10-13T19:25:42.891Z,12.90
2022-10-13T19:28:09.847Z,12.90
2022-10-13T19:30:36.723Z,12.90
2022-10-13T19:33:04.053Z,12.90
2022-10-13T19:35:31.060Z,12.90
2022-10-13T19:37:57.892Z,12.80
2022-10-13T19:40:24.727Z,12.80
2022-10-13T19:42:51.555Z,12.80
2022-10-13T19:45:18.435Z,12.80
2022-10-13T19:47:45.266Z,12.80
2022-10-13T19:50:12.095Z,12.70
2022-10-13T19:52:39.156Z,12.70
2022-10-13T19:55:06.470Z,12.70
2022-10-13T19:57:33.323Z,12.60
2022-10-13T20:00:00.197Z,12.60
2022-10-13T20:02:27.223Z,12.60
2022-10-13T20:04:54.152Z,12.50
2022-10-13T20:07:21.230Z,12.50
2022-10-13T20:09:48.234Z,12.40
2022-10-13T20:12:15.151Z,12.50
2022-10-13T20:14:41.968Z,12.40
2022-10-13T20:17:09.063Z,12.40
2022-10-13T20:19:36.049Z,12.40
2022-10-13T20:22:03.043Z,12.40
2022-10-13T20:24:29.841Z,12.40
2022-10-13T20:26:56.827Z,12.40
2022-10-13T20:29:23.760Z,12.40
2022-10-13T20:31:50.660Z,12.40
2022-10-13T20:34:17.513Z,12.30
2022-10-13T20:36:44.361Z,12.30
2022-10-13T20:39:11.297Z,12.30
2022-10-13T20:41:38.157Z,12.20
2022-10-13T20:44:05.062Z,12.20
2022-10-13T20:46:31.973Z,12.20
2022-10-13T20:49:10.519Z,12.20
2022-10-13T20:51:38.054Z,12.10
2022-10-13T20:54:04.994Z,12.10
2022-10-13T20:56:32.711Z,12.10
2022-10-13T20:59:07.712Z,12.10
2022-10-13T21:01:34.605Z,12.10
2022-10-13T21:04:01.522Z,12.00
2022-10-13T21:06:28.394Z,12.00
2022-10-13T21:08:55.474Z,12.00
2022-10-13T21:11:22.958Z,12.00
2022-10-13T21:13:50.028Z,12.00
2022-10-13T21:16:19.357Z,12.00
2022-10-13T21:18:50.117Z,11.90
2022-10-13T21:21:18.670Z,11.90
2022-10-13T21:23:46.108Z,11.90
2022-10-13T21:26:16.271Z,11.90
2022-10-13T21:28:45.757Z,11.90
2022-10-13T21:31:13.907Z,11.90
2022-10-13T21:33:41.263Z,11.80
2022-10-13T21:36:13.142Z,11.80
2022-10-13T21:38:40.492Z,11.80
2022-10-13T21:41:07.869Z,11.70
2022-10-13T21:43:34.723Z,11.70
2022-10-13T21:46:15.674Z,11.70
2022-10-13T21:48:45.877Z,11.60
2022-10-13T21:51:12.707Z,11.60
2022-10-13T21:53:39.625Z,11.60
2022-10-13T21:56:07.659Z,11.50
2022-10-13T21:58:35.010Z,11.50
2022-10-13T22:01:05.161Z,11.50
2022-10-13T22:03:33.146Z,11.50
2022-10-13T22:06:07.405Z,11.50
2022-10-13T22:08:38.663Z,11.50
2022-10-13T22:11:06.826Z,11.40
2022-10-13T22:13:33.722Z,11.40
2022-10-13T22:16:11.475Z,11.40
2022-10-13T22:18:38.380Z,11.40
2022-10-13T22:21:16.453Z,11.40
2022-10-13T22:23:43.485Z,11.40
2022-10-13T22:26:10.720Z,11.40
2022-10-13T22:28:37.996Z,11.40
2022-10-13T22:31:09.344Z,11.40
2022-10-13T22:33:36.710Z,11.40
2022-10-13T22:36:10.854Z,11.40
2022-10-13T22:38:37.745Z,11.30
2022-10-13T22:41:05.308Z,11.40
2022-10-13T22:43:32.304Z,11.40
2022-10-13T22:45:59.272Z,11.40
2022-10-13T22:48:26.182Z,11.30
2022-10-13T22:50:52.992Z,11.40
2022-10-13T22:53:19.936Z,11.40
2022-10-13T22:55:46.769Z,11.40
2022-10-13T22:58:13.601Z,11.30
2022-10-13T23:00:40.487Z,11.40
2022-10-13T23:03:07.455Z,11.40
2022-10-13T23:05:34.354Z,11.40
2022-10-13T23:08:01.220Z,11.30
2022-10-13T23:10:28.076Z,11.40
2022-10-13T23:12:54.940Z,11.30
2022-10-13T23:15:21.748Z,11.30
2022-10-13T23:17:48.557Z,11.30
2022-10-13T23:20:15.373Z,11.30
2022-10-13T23:22:42.256Z,11.30
2022-10-13T23:25:09.237Z,11.30
2022-10-13T23:27:36.197Z,11.30
2022-10-13T23:30:03.185Z,11.30
2022-10-13T23:32:30.048Z,11.30
2022-10-13T23:34:56.868Z,11.30
2022-10-13T23:37:23.922Z,11.30
2022-10-13T23:39:50.909Z,11.30
2022-10-13T23:42:17.861Z,11.20
2022-10-13T23:44:44.715Z,11.20
2022-10-13T23:47:11.657Z,11.20
2022-10-13T23:49:38.512Z,11.20
2022-10-13T23:52:10.663Z,11.30
2022-10-13T23:54:37.890Z,11.30
2022-10-13T23:57:04.741Z,11.30
2022-10-13T23:59:31.552Z,11.30
